Ride Results

Tom Quilty Gold Cup (08-07-2022)
Ride distance: 160.0 km

Outcomes - Tom Quilty Gold Cup (08-07-2022)
Division No. of Entries Retired / DNE Completed Withdrawn Ineligible V/O Percentage Completed
HW 25 - 11 4 - 10 44.00%
MW 85 - 56 10 - 19 65.88%
LW 53 - 39 3 - 11 73.58%
JN 23 - 15 - - 8 65.22%
Totals 186 - 121 17 - 48 65.05%
Results - Tom Quilty Gold Cup (08-07-2022)
No. Rider Horse Place Time Leg Speeds Total
Km/Hr
H/R bpm
Heavyweight
171 Roy Barsby Dumaresq Suleiman 1 13:40:32 10.9, 12.4, 10.7, 12.1, 12.9 11.70 34, 52, 54, 52, 56, 52 (Avg:53)
168 Greg Lyon Chingford Just Dreaming 2 (BC) 14:55:37 10.6, 10.3, 9.7, 12.2, 10.5 10.72 32, 54, 52, 52, 56, 55 (Avg:53)
180 Shelley Jones Shellal Blue 3 15:14:20 9.6, 11.7, 9.1, 11.5, 10.3 10.50 36, 52, 56, 52, 52, 56 (Avg:53)
156 Troy Butler Falcon Hill Mahbeer 4 15:21:01 10.3, 10.9, 9.4, 10.7, 10.3 10.42 40, 52, 50, 58, 48, 56 (Avg:52)
173 Duncan Woodhead Bangalow Park Cobber 5 15:49:07 10.9, 10.2, 9.4, 10.5, 8.4 10.11 36, 52, 56, 52, 56, 56 (Avg:54)
165 Corey Nix Macrocarpa Red Bull 6 15:51:09 9.3, 10.6, 9.6, 10.5, 10.3 10.09 40, 56, 56, 60, 56, 56 (Avg:56)
160 Sam Duff Box Hill Storm Boy 7 16:18:35 9.9, 11.1, 9.2, 10.1, 7.5 9.81 30, 42, 44, 44, 48, 40 (Avg:43)
170 Peter Field Rkayn Xuberant 8 16:31:56 9.3, 10.4, 9.7, 9.9, 8.1 9.68 36, 50, 52, 52, 48, 42 (Avg:48)
161 Jo Davis Jamal Desert Mist 9 17:23:45 9.3, 9.6, 9.6, 9.6, 6.8 9.20 36, 50, 55, 58, 52, 52 (Avg:53)
162 Kate Johnson Saphire 10 18:28:39 8.3, 9.1, 8.2, 8.8, 8.6 8.66 36, 40, 44, 48, 48, 48 (Avg:45)
152 Ellie Hill Crystalilly 11 19:28:04 7.4, 8.9, 8.0, 9.1, 7.0 8.22 40, 48, 50, 56, 52, 48 (Avg:50)
175 Shane Butler Burralga Angelikh Lame L4 11:39:14 11.6, 12.8, 12.0, 12.8 12.36 34, 56, 56, 52, 52 (Avg:54)
172 Mark Nimon La Belle Amour Metabolics non-invasive L4 (Rep) 12:11:07 11.2, 12.6, 10.2, 13.1 11.82 44, 56, 54, 52, 60, 60 (Avg:56)
155 Steve Brooks Box Hill Banjo Lame L4 13:28:48 11.2, 11.7, 10.2, 9.5 10.68 44, 44, 56, 50, 56 (Avg:51)
167 Tahnaya Mercieca Henley Farm Fursan Lame L4 13:42:48 11.0, 12.1, 9.9, 9.1 10.50 34, 56, 56, 56, 60 (Avg:57)
157 Angela Waldock Concord Lame L4 15:56:49 8.0, 9.1, 9.1, 10.0 9.03 40, 48, 48, 52, 52 (Avg:50)
174 Marty Moran Coco Chanel W/D after vetting L3 11:01:19 - 9.62 51, 58, 60, 60, 60 (Avg:59)
169 Robert Catlin Avita Lame L3 11:07:50 9.5, 10.2, 8.6 9.52 40, 52, 57, 56 (Avg:55)
151 Gavin Peacock Chop Chop W/D after vetting L3 12:22:21 - 8.57 36, 48, 57, 60 (Avg:55)
153 Sue Warren Razorback Darcy Lame L2 8:06:24 9.3, 9.6 9.50 36, 56, 46 (Avg:51)
164 Gillian Taylor Cool Water Moonstone W/D on track L2 8:21:00 - 9.22 48, 52, 55 (Avg:53)
178 Lainie Ray Diamond R Turbo Metabolics severe L2 9:05:00 8.3, 8.6 8.48 32, 52, 80 (Avg:66)
158 Allyson Taylor Norfolk Park Apocalypse Lame L1 3:22:37 10.9 10.96 40, 56 (Avg:56)
176 Russell Robinson Alan Pendragon Lame L1 3:48:34 9.7 9.71 40, 56 (Avg:56)
154 Allan Caslick A'Landell Soul W/D after vetting L1 4:09:48 - 8.89 32, 40, 47 (Avg:43)
Middleweight
90 Tahlia Franke Castlebar Bazaar 1 (BC) 10:39:18 13.8, 16.8, 13.8, 16.4, 13.3 15.02 32, 53, 50, 60, 52, 52 (Avg:53)
84 Kristie Taprell Castlebar Roulette 1 10:39:18 14.5, 15.8, 13.7, 16.2, 14.1 15.02 36, 53, 56, 57, 60, 54 (Avg:56)
30 Renee Kelso SB Defino 3 11:51:15 13.9, 12.3, 14.2, 14.0, 13.2 13.50 32, 48, 48, 48, 56, 56 (Avg:51)
70 Lizzie Moir Box Hill Jackpot 4 11:51:34 14.8, 15.7, 13.7, 11.2, 11.8 13.49 32, 58, 60, 60, 50, 56 (Avg:56)
1 Stella Harbison Minton East Chaucer 5 12:07:41 12.3, 14.1, 12.7, 13.2, 13.5 13.19 36, 59, 47, 56, 52, 52 (Avg:53)
32 Amanda Kettlewell Oso Enigma 6 12:14:33 11.8, 12.8, 12.2, 14.7, 14.9 13.07 44, 53, 60, 60, 56, 56 (Avg:57)
7 Annette Bailey Bullio Charlotte 7 12:17:01 13.1, 12.3, 11.6, 14.0, 15.5 13.03 33, 52, 56, 56, 60, 52 (Avg:55)
69 Kate Pilley Aloha Zulm 8 12:18:49 14.7, 15.8, 13.8, 10.2, 10.9 12.99 32, 58, 60, 60, 56, 59 (Avg:58)
50 Deb Wyllie Beer Street Tarkine 9 12:28:02 11.6, 12.6, 12.6, 14.7, 12.7 12.83 34, 56, 58, 60, 56, 52 (Avg:56)
62 Virginia Barber Burralga Thunderbolt 10 12:32:21 11.2, 12.6, 12.6, 13.0, 18.5 12.76 36, 58, 48, 56, 56, 56 (Avg:54)
72 Naomi McGaffin Kelkette Park Faris 11 12:32:22 11.4, 13.2, 12.0, 13.7, 14.3 12.76 36, 56, 60, 56, 56, 52 (Avg:56)
8 Catherine Bailey Razorback Annatole 12 12:32:23 13.1, 12.3, 11.7, 13.7, 12.8 12.76 32, 44, 52, 60, 56, 53 (Avg:53)
81 Ben Hudson Littlebanks Integrity 13 12:32:24 11.0, 13.4, 12.5, 14.3, 12.6 12.76 34, 60, 60, 60, 60, 60 (Avg:60)
65 Jo Barsby Dumaresq Vaquero 14 12:51:16 11.7, 12.3, 12.9, 12.5, 13.5 12.45 28, 52, 48, 48, 56, 48 (Avg:50)
73 Grace Huxtable Oso Kayla 15 13:04:44 11.1, 13.2, 12.1, 12.7, 11.6 12.23 40, 52, 56, 56, 60, 46 (Avg:54)
44 Matthew Sample Cedar Ridge Lyric 16 13:11:48 11.1, 11.6, 10.2, 15.1, 14.3 12.12 36, 60, 54, 52, 56, 56 (Avg:55)
22 Brandon Dick Cameo Cranberry Moon 17 13:16:56 11.1, 12.8, 10.2, 13.2, 14.0 12.05 40, 60, 52, 55, 60, 48 (Avg:55)
59 Stephanie Malmborg Wattle Tree Amir 18 13:17:02 10.8, 11.8, 11.7, 13.0, 14.1 12.04 40, 53, 52, 52, 53, 56 (Avg:53)
89 Ashley Cole Yallaroo Amira 19 13:26:51 12.3, 14.2, 12.6, 11.0, 8.4 11.90 40, 52, 59, 52, 52, 52 (Avg:53)
66 Ian Curtis Blake's Heaven Summer Wind 20 13:40:48 11.4, 12.6, 11.1, 11.5, 11.4 11.70 32, 52, 52, 52, 48, 52 (Avg:51)
48 Lynn Ruesseler Willowstar Bay-Sil 21 13:53:59 9.7, 12.2, 11.7, 11.8, 13.6 11.51 36, 60, 48, 60, 60, 60, 56 (Avg:57)
75 Paul Bryson Miss Dior Mi 22 14:45:06 12.0, 13.4, 11.2, 10.0, 6.8 10.85 36, 60, 60, 56, 48, 52 (Avg:55)
76 Marty Bryson Mukhtar CTE 23 14:45:07 13.5, 13.8, 9.1, 9.5, 8.1 10.85 36, 56, 56, 56, 52, 56 (Avg:55)
26 Kylie Jonkers Sahara Park Miss Rubicon 24 14:45:37 11.6, 12.2, 11.2, 9.0, 10.2 10.84 32, 52, 58, 52, 44, 44 (Avg:50)
52 Rodney Curry Wybalena Lodge Aflirt 25 14:55:42 10.1, 11.2, 9.6, 11.9, 10.4 10.72 44, 52, 56, 49, 60, 52 (Avg:53)
45 Sarah Lymbery Baranne Tu-Shay 26 15:01:09 11.8, 12.8, 12.4, 9.1, 7.0 10.65 44, 56, 58, 58, 52, 60 (Avg:56)
18 Alexandra Toft Twilight te 27 15:11:07 11.4, 11.6, 9.3, 9.9, 10.0 10.54 32, 56, 58, 46, 42, 48 (Avg:50)
31 Gayle Holmes Sherloch 28 15:11:37 9.6, 11.0, 9.6, 11.8, 10.3 10.53 36, 52, 58, 54, 48, 48 (Avg:52)
53 Saasha Grogan Halo Rhapsody In Blue 29 15:15:12 10.3, 10.4, 8.8, 12.2, 10.8 10.49 38, 48, 54, 58, 56, 56 (Avg:54)
10 Debbie Grull Lauralyn Notorious 30 15:41:57 11.2, 11.3, 8.1, 11.1, 8.3 10.19 32, 56, 54, 48, 56, 52 (Avg:53)
86 Jenny Berg Legacy Revolution 31 15:48:16 12.2, 13.1, 8.3, 8.6, 8.5 10.12 31, 60, 60, 60, 52, 48 (Avg:56)
2 Jessica Aistrope Aqaba Signette 32 15:48:40 9.7, 11.1, 10.2, 10.3, 8.3 10.12 36, 56, 59, 59, 60, 44 (Avg:55)
46 Teresa Birkett Aloha Desert Fire 33 15:48:45 9.7, 11.1, 10.1, 10.4, 8.3 10.12 40, 52, 52, 56, 52, 48 (Avg:52)
14 Tracey Eastaughffe Moondarra Elton 34 16:17:17 9.5, 10.1, 9.2, 10.7, 8.9 9.82 40, 44, 48, 52, 48, 44 (Avg:47)
38 Keiran Rowley Rhythm Dancer 35 16:21:09 8.5, 10.9, 9.6, 11.3, 8.0 9.78 32, 44, 52, 48, 46, 44 (Avg:46)
40 Christopher Schofield Fortaleza Abbe Rose 36 16:22:44 10.5, 12.3, 6.2, 11.3, 9.5 9.77 36, 54, 52, 52, 60, 54 (Avg:54)
68 Linda Lochtenberg Matta Mia Dayimi 37 16:29:16 9.5, 10.3, 9.5, 10.9, 7.1 9.70 40, 52, 44, 48, 45, 48 (Avg:47)
67 Katrina Newitt Azale Aladdin 38 16:33:32 9.8, 11.2, 9.0, 9.6, 7.6 9.66 44, 58, 56, 60, 56, 52 (Avg:56)
11 Sam Peters Love In The Mist 39 16:40:49 9.2, 10.7, 8.6, 10.3, 8.1 9.59 30, 44, 48, 48, 48, 48 (Avg:47)
51 Scott Peters Castlebar Icon 40 16:41:05 9.2, 10.7, 8.6, 10.3, 8.1 9.59 36, 44, 44, 49, 44, 44 (Avg:45)
58 Clare Feary Equilo 41 16:49:36 9.5, 10.2, 8.6, 10.1, 8.2 9.51 60, 56, 48, 48, 60, 60 (Avg:54)
87 Melanie Scott Eminem Missella 42 16:58:15 9.7, 9.7, 8.7, 9.6, 8.8 9.43 44, 60, 52, 56, 57, 52 (Avg:55)
13 Xanthe Webb New Sensation TA 43 16:58:28 8.6, 9.5, 8.9, 10.7, 9.1 9.43 48, 40, 48, 44, 44, 40 (Avg:43)
63 Sophie Counsell Maringo 44 17:13:11 8.9, 9.7, 8.6, 10.2, 8.4 9.29 28, 48, 52, 52, 54, 50 (Avg:51)
12 Danielle Kendall In Pursuit te 45 17:15:13 8.8, 9.9, 9.3, 9.7, 7.7 9.27 58, 56, 52, 57, 48, 54 (Avg:53)
61 Isabella Circosta Ropa Park Bella Shakila 46 17:56:00 9.3, 9.3, 8.4, 9.7, 6.7 8.92 44, 52, 56, 53, 56, 48 (Avg:53)
60 Mette Sutton Tuldar Tully 47 17:56:01 9.3, 9.3, 8.4, 9.6, 6.8 8.92 36, 56, 52, 54, 55, 48 (Avg:53)
9 Sherry Lowe Greywood Karbine 48 18:01:10 8.0, 9.1, 9.1, 10.0, 7.7 8.88 44, 45, 48, 50, 45, 48 (Avg:47)
23 Ken Moir Lasca's Lightning 49 18:27:52 8.4, 9.4, 8.3, 9.5, 6.6 8.67 44, 56, 52, 54, 56, 56 (Avg:54)
74 Jodie Luck Almazaan Summer Haze 50 18:28:26 8.3, 9.2, 8.1, 8.9, 8.2 8.66 30, 48, 44, 44, 40, 48 (Avg:44)
77 Alannah Luck West Coast Asher 50 18:28:26 8.3, 9.2, 8.1, 8.9, 8.2 8.66 27, 44, 40, 48, 48, 44 (Avg:44)
20 Jo Bailey Claralee Honeymoon 52 18:56:15 8.0, 9.0, 7.9, 9.2, 7.4 8.45 60, 56, 52, 51, 56, 56 (Avg:54)
80 Erin Steinbacher Coolinda Park Lukasz 53 19:23:43 9.2, 10.2, 7.4, 7.7, 5.8 8.25 44, 56, 52, 54, 48, 48 (Avg:51)
27 Noni Seagrim Kintamani Mustang Billy 54 19:23:53 9.2, 10.2, 7.4, 7.7, 5.8 8.25 52, 58, 56, 52, 52, 48 (Avg:53)
21 Anita Maggacis Emilina 55 19:27:53 11.3, 10.1, 7.0, 7.2, 5.6 8.22 32, 52, 48, 44, 44, 41 (Avg:45)
3 Rachel Benad Veloce Divine 56 20:37:07 8.5, 8.9, 6.9, 7.3, 6.6 7.76 36, 52, 52, 56, 48, 52 (Avg:52)
29 Peter Holmes Sie El Mancha-Mii W/D after vetting L4 12:13:50 - 11.77 32, 48, 52, 52, 56, 48 (Avg:51)
56 Darryl King James Bonn Lame L4 10:42:58 15.3, 14.8, 13.9, 10.7 13.44 32, 58, 56, 52, 56, 52 (Avg:54)
34 Ellen Murdoch Henley Farm Janazah Lame L4 11:11:39 13.3, 13.5, 12.8, 11.8 12.86 48, 45, 51, 52, 52 (Avg:50)
4 Debra McQueen Kynnum Park Mr Epona Lame L4 11:25:08 11.1, 14.3, 11.9, 13.2 12.61 36, 56, 56, 56, 56 (Avg:56)
25 Brook Sample Brookleigh Federer W/D on track L4 (Rep) 12:31:00 - 11.50 35, 60, 60, 56, 60, 48 (Avg:56)
28 Matty Sample Brookleigh Gandalf Lame L4 13:36:55 10.9, 11.7, 9.2, 10.3 10.58 36, 60, 60, 52, 60 (Avg:58)
24 Jose Flores Honey Bee W/D on track L4 13:51:00 - 10.40 38, 59, 48, 52, 52, 48 (Avg:51)
83 Tamara Gibson Dunbar Magnolia Lame L4 14:12:44 9.5, 10.6, 10.0, 10.2 10.13 40, 60, 52, 49, 44 (Avg:51)
19 Sarah Fraser O'Brien Heathfield's Shakira Lame L4 15:18:10 8.9, 9.7, 9.0, 9.8 9.41 44, 45, 58, 52, 56 (Avg:52)
78 Robyn Player Cedarwood Lodge Red Diamond Lame L3 7:48:03 13.7, 14.4, 12.4 13.59 32, 52, 47, 52 (Avg:50)
35 Jessica Williams Alzarah Lame L3 8:01:03 13.3, 13.5, 12.6 13.22 32, 52, 55, 57 (Avg:54)
79 Matt Milne Betty Be On Time Lame L3 9:09:23 12.6, 12.3, 9.7 11.58 36, 54, 52, 60 (Avg:55)
43 Liesel Houtkamp Brookleigh Sage W/D after vetting L3 (Rep) 9:16:19 - 11.43 32, 52, 52, 56, 50 (Avg:52)
85 Simon Thomas Rocky Point Sands of Cymophane Lame L3 10:32:35 9.4, 10.8, 9.7 10.05 38, 56, 50, 58 (Avg:54)
55 Louis Ryan Bremervale Bey Rafael W/D after vetting L3 11:41:21 - 9.07 36, 44, 58, 48 (Avg:50)
42 Sorsha Stuart-Rokvic Berwick Royal Music Lame L2 6:00:10 12.3, 13.3 12.83 28, 44, 54 (Avg:49)
57 Rick Brown Wattle Tree Flight Lame L2 6:46:13 10.8, 11.8 11.37 42, 48, 52 (Avg:50)
41 Jill Free Kadar Silkk Lame L2 6:53:52 11.3, 11.0 11.16 36, 48, 48 (Avg:48)
33 Shannon Cossor Oso Diamond Dazzler Metabolics moderate L2 7:08:50 11.1, 10.4 10.77 40, 60, 52 (Avg:56)
47 Fiona Fenech Sweet Honesty Molleeh Metabolics moderate L1 0:46:00 48.2 48.26 40, 54 (Avg:54)
88 Christal Rizk Kynnum Park Jai Gall or injury L1 1:01:00 36.3 36.39 48, 44 (Avg:44)
17 Penny Toft Larntainey Silver Treasure W/D after vetting L1 3:13:55 - 11.45 36, 58 (Avg:58)
82 Ashleigh Van Leeuwen Kaisa SE W/D after vetting L1 3:16:40 - 11.29 48, 52 (Avg:52)
39 Sharon Foster Fortaleza Mystical Silver Metabolics moderate L1 3:22:25 10.9 10.97 36, 62 (Avg:62)
64 Steve Gray Shardell Indian Storm W/D after vetting L1 3:32:40 - 10.44 40, 60 (Avg:60)
36 Tracy-Lee Cossor Future Dream Savannah Lame L1 3:39:34 10.1 10.11 44, 60 (Avg:60)
71 Evie Whitton Splendacrest Zafire W/D after vetting L1 3:44:52 - 9.87 28, 50 (Avg:50)
49 Tegan Streeter Woodbourne Betty Brown Lame L1 (Rep) 5:21:07 6.9 6.91 40, 48, 48 (Avg:48)
6 Hannah Cossor Illarak Bequest W/D after vetting P/R 0:00:00 - - -
Lightweight
207 Pamela Karner Flemingo Saphire 1 (BC) 12:07:32 14.8, 13.3, 12.6, 12.6, 12.1 13.20 38, 48, 56, 52, 52, 52 (Avg:52)
251 Chloe Hayden Oso Evita 2 12:14:09 11.8, 12.7, 12.4, 14.7, 15.0 13.08 48, 52, 60, 58, 60, 52 (Avg:56)
263 Miki Bell Duray Spartakos 3 12:19:16 12.2, 13.8, 12.1, 13.9, 12.2 12.99 30, 56, 58, 60, 60, 52 (Avg:57)
262 Clare Fleming Flemingo Bomsaway 3 12:19:16 12.3, 13.8, 12.2, 13.9, 11.8 12.99 32, 44, 45, 52, 56, 56 (Avg:50)
276 Renee Henry Kollage MI 3 12:19:16 13.5, 13.4, 12.5, 12.7, 12.2 12.99 59, 56, 52, 56, 54, 60 (Avg:55)
268 Angie Clark Littlebanks Troubadour 6 12:27:47 11.6, 12.7, 12.5, 14.7, 12.7 12.84 40, 52, 52, 60, 56, 48 (Avg:53)
252 Victoria Bice Oso Meeka 7 13:04:55 11.3, 13.0, 12.5, 12.8, 10.9 12.23 30, 60, 56, 58, 60, 52 (Avg:57)
261 Rachel Brown Houdini 8 13:32:44 12.3, 11.8, 11.4, 11.6, 11.5 11.81 32, 56, 54, 58, 52, 56, 56 (Avg:55)
270 Kim Calway Spelldancer 9 14:48:44 11.4, 11.1, 10.4, 11.2, 8.6 10.80 40, 54, 52, 57, 58, 56 (Avg:55)
279 Sarah McLaughlin Tonki Dee Boo Betty 10 14:49:37 9.4, 11.4, 9.7, 12.4, 11.4 10.79 36, 48, 54, 60, 55, 54 (Avg:54)
280 Lauren Roper San Ella Estelle 11 14:55:55 10.6, 12.2, 10.4, 9.4, 11.1 10.72 40, 53, 60, 52, 48, 56 (Avg:53)
253 Kaylea Maher Dream Big te 12 15:11:43 9.6, 11.0, 9.9, 11.5, 10.3 10.53 36, 44, 52, 52, 48, 44 (Avg:48)
250 Sarah Parker Wongaburra Princess Hana 13 15:14:26 9.3, 11.4, 9.5, 11.6, 10.5 10.50 44, 51, 59, 56, 60, 52, 60, 56 (Avg:56)
216 Sue Sutcliffe El Crown Prince 14 15:15:05 10.9, 11.4, 9.2, 10.0, 10.8 10.49 32, 52, 52, 50, 52, 48 (Avg:50)
272 Kasey Thomas Rocky Point Sands of Sinhalite 15 15:17:28 9.4, 10.8, 9.7, 11.6, 10.7 10.46 44, 56, 52, 52, 56, 52 (Avg:53)
214 Maeve Paten Box Hill Nitro 16 15:41:35 10.4, 10.6, 9.0, 11.1, 8.9 10.20 32, 52, 52, 56, 52, 52 (Avg:52)
259 Shelley Chapman Cameo Bizmarck 17 15:41:45 10.4, 10.6, 9.0, 11.1, 8.9 10.19 34, 60, 56, 54, 44, 48 (Avg:52)
228 Susan Woodward Castlebar What's The Goss 18 15:52:22 9.5, 10.9, 9.1, 10.4, 10.0 10.08 36, 60, 52, 48, 56, 56 (Avg:54)
202 Camille Fitton Sangah Zacado 19 16:01:00 10.6, 9.7, 9.5, 10.4, 8.9 9.99 38, 60, 59, 55, 56, 60 (Avg:58)
278 Aanja Hamelink Stirling's Saffron 20 16:03:35 9.3, 10.6, 9.7, 10.4, 9.0 9.96 36, 52, 54, 56, 48, 54 (Avg:52)
275 Nicole Porter Avondale Silvertron 21 16:03:41 9.4, 10.6, 10.0, 10.2, 8.8 9.96 48, 46, 56, 56, 52, 56 (Avg:53)
257 Alana Simpson Meea 22 16:17:14 9.5, 10.1, 9.2, 10.7, 8.9 9.82 48, 48, 56, 54, 58, 48 (Avg:52)
222 Sabrina Stephens Cameo Gryffindor 23 16:21:22 8.5, 10.9, 9.6, 11.3, 7.9 9.78 44, 44, 48, 48, 48, 52 (Avg:48)
266 Karen Winkel El Sharanah Sharif 24 16:32:08 9.3, 10.4, 9.7, 9.9, 8.1 9.68 48, 52, 52, 52, 48, 48 (Avg:50)
225 Louise Stevens Blake's Heaven Bon Vivant 25 16:34:20 10.0, 10.6, 8.7, 9.6, 8.5 9.65 36, 56, 56, 52, 52, 48 (Avg:52)
267 Janelle Taylor Calico Jarkamarn 26 16:58:31 9.5, 10.9, 9.6, 8.8, 7.3 9.43 34, 44, 48, 49, 44, 48 (Avg:46)
264 Kim Hill Twinkle 27 17:24:00 9.0, 9.9, 9.7, 9.6, 6.7 9.20 30, 48, 60, 52, 52, 52 (Avg:52)
258 Faith Robinson Espirit Serena 28 18:00:46 9.7, 9.8, 8.0, 8.5, 7.7 8.88 36, 48, 44, 48, 52, 44 (Avg:47)
227 Jodi Dewick Wickwood Badira 29 18:00:47 8.8, 9.0, 8.4, 9.4, 7.9 8.88 36, 44, 56, 52, 52, 42 (Avg:49)
220 Emma Dimech Yarramine Regal 30 18:01:09 8.0, 9.1, 9.1, 10.0, 7.7 8.88 39, 48, 56, 60, 60, 52 (Avg:55)
277 Sheree Bishop Shellal Kiwi 31 18:28:11 9.4, 10.4, 7.7, 8.3, 6.6 8.66 64, 52, 52, 56, 52, 48 (Avg:52)
274 Nicky Robinson Sterling Nakeeta 32 19:08:34 8.6, 9.3, 7.2, 8.9, 6.9 8.36 44, 56, 56, 52, 44, 44 (Avg:50)
255 Roz Edmunds Mindari Ace High 33 19:08:43 8.6, 9.2, 7.1, 8.7, 7.3 8.36 36, 44, 42, 44, 44, 42 (Avg:43)
224 Talea Hasko-Stewart Blake's Heaven Venus 34 19:09:00 8.2, 9.1, 7.6, 8.5, 7.7 8.36 40, 52, 52, 48, 40, 46 (Avg:47)
203 Kali Sloane Blake's Heaven Carousel 35 19:09:15 8.2, 9.1, 7.6, 8.5, 7.6 8.35 32, 52, 48, 52, 48, 44 (Avg:48)
223 Belinda Hollingworth Coolinda Park Winston 36 19:23:57 9.2, 10.2, 7.4, 7.7, 5.8 8.25 48, 60, 50, 44, 48, 48 (Avg:50)
201 Pandora Bevan Katushka 37 19:27:58 7.4, 8.9, 8.0, 9.1, 7.0 8.22 40, 56, 48, 48, 48, 48 (Avg:49)
205 Chintzia Campo Ardair Skoda 38 20:33:36 6.3, 8.4, 8.3, 8.0, 9.0 7.78 40, 48, 48, 53, 48, 48 (Avg:49)
221 Adriana Sardoni Maloo Vale Amir Halo 39 20:33:37 6.3, 8.4, 8.3, 8.0, 9.0 7.78 30, 44, 48, 52, 44, 48 (Avg:47)
217 Narelle Childs Indy W/D after vetting L5 16:23:16 - 9.76 40, 48, 56, 44, 52, 50 (Avg:50)
226 Sara Worner Tequila Lame L5 16:59:20 10.0, 10.4, 8.8, 8.9, 8.3 9.42 36, 44, 48, 40, 40, 42 (Avg:42)
218 Tracey Hutchinson Woodbourne Jim Brown Lame L5 18:56:12 8.0, 9.2, 7.7, 9.2, 7.4 8.45 40, 48, 48, 44, 48, 46 (Avg:46)
208 Caterina Coppini Castlebar Belair Lame L4 11:11:50 11.6, 13.0, 12.2, 14.6 12.86 32, 48, 48, 52, 52 (Avg:50)
271 Danielle Costello Natham Park Charmika W/D after vetting L4 14:42:02 - 9.80 40, 60, 56, 58, 54 (Avg:57)
209 Jaimie Dekeyzer Marley Lame L4 16:38:19 8.3, 9.1, 8.1, 8.9 8.65 36, 4, 44, 52, 52 (Avg:38)
219 Emma Shone Brookleigh Syria Metabolics severe L3 10:40:25 10.2, 10.5, 8.9 9.93 32, 44, 48, 48 (Avg:46)
212 Fia Hasko-Stewart Blake's Heaven Adventuress W/D after vetting L3 10:45:51 - 9.85 36, 48, 52, 40, 60 (Avg:50)
260 Linda Logan Willow Valley Dartanyan Lame L3 12:03:59 9.1, 8.8, 8.2 8.78 36, 52, 52, 52 (Avg:52)
213 Tayla Innes Lindall Farouk Lame L3 12:05:02 8.9, 9.1, 8.1 8.77 32, 48, 52, 50 (Avg:50)
265 Virginia Dale Jum Jum Spirit Lame L3 13:50:21 6.9, 8.1, 8.0 7.66 36, 44, 52, 56 (Avg:50)
273 Shannon Decker Cooroora Bold Dancer Lame L2 5:08:48 13.9, 16.0 14.96 60, 60, 60 (Avg:60)
211 Cindy Holden True Sensie Lame L2 7:13:43 10.2, 11.0 10.65 36, 56, 52 (Avg:54)
215 Robin Gossip Raymar Amira Lame L1 0:44:00 50.4 50.45 32, 44 (Avg:44)
Junior
312 Charlie Bonham Box Hill Sapphire 1 12:36:23 12.6, 13.5, 13.3, 12.8, 10.0 12.69 32, 52, 50, 48, 56, 46 (Avg:50)
307 Lara Duff Box Hill Pegasus 1 (BC) 12:36:23 12.6, 13.4, 13.3, 12.8, 10.0 12.69 32, 48, 44, 48, 48, 40 (Avg:45)
301 Georgie Barber Concerto 3 12:50:52 11.1, 12.5, 10.5, 13.7, 19.5 12.45 40, 54, 52, 48, 60, 56 (Avg:54)
302 Ellie-Rose Bowden Silver Centurion 3 12:50:52 11.1, 12.5, 10.5, 13.7, 19.5 12.45 36, 48, 52, 49, 52, 52 (Avg:50)
315 Emma Ireland Brookleigh Danu 5 13:12:16 10.1, 12.9, 10.2, 15.1, 14.2 12.12 32, 60, 52, 48, 50, 52 (Avg:52)
321 Mary Duncan Bonnybrooke Samarai 6 13:37:19 12.7, 11.9, 9.6, 11.3, 15.7 11.75 44, 56, 48, 48, 56, 56 (Avg:52)
308 Neeve Whittaker Drumlin History 7 13:53:13 10.8, 11.7, 11.9, 11.4, 12.0 11.52 36, 48, 58, 56, 56, 48 (Avg:53)
314 Talyn Nix Homeleigh Mountain Khalid's Komet 8 14:55:59 9.3, 10.9, 10.0, 12.7, 11.0 10.71 44, 52, 52, 52, 56, 48 (Avg:52)
316 Poppy Kettlewell Oso Dizzy 9 16:01:25 11.0, 11.0, 8.3, 11.1, 7.4 9.99 40, 60, 60, 52, 60, 58, 56 (Avg:57)
318 Sophia Moppett Box Hill Tilly Kay 10 16:18:38 9.9, 11.1, 9.1, 10.1, 7.5 9.81 36, 52, 54, 52, 50, 48 (Avg:51)
306 Tahlea Lochtenberg Henley Farm Nadif 11 16:29:12 9.5, 10.3, 9.5, 10.9, 7.1 9.70 40, 48, 52, 50, 52, 44 (Avg:49)
311 Annie Jackson Teddy 12 16:34:17 8.9, 10.7, 8.9, 10.3, 8.7 9.66 24, 40, 40, 44, 42, 36 (Avg:40)
309 Isabella Worner Lucanna Park Mystic Fire 13 16:59:32 10.0, 10.4, 8.8, 8.9, 8.2 9.42 40, 48, 48, 48, 48, 46 (Avg:47)
304 Charlize Renner Stevie Wonder te 14 17:15:27 8.9, 9.7, 9.0, 9.8, 8.1 9.27 42, 50, 52, 52, 52, 50 (Avg:51)
319 Molly Renner Hugo Boss te 15 17:15:34 8.8, 9.9, 9.3, 9.7, 7.7 9.27 36, 48, 55, 52, 44, 48 (Avg:49)
320 Eadie McWilliam Sixbells Aleph Lame L5 15:11:01 11.4, 11.6, 9.3, 9.8, 10.0 10.54 35, 52, 48, 52, 44, 48, 44 (Avg:48)
323 Tilly Goodhew Merlin GG Lame L5 16:34:21 8.9, 10.7, 9.0, 10.3, 8.7 9.65 30, 44, 52, 54, 52, 44 (Avg:49)
317 Kaitlyn Mercieca Henley Farm Burosh Heart Rate L4 11:39:21 11.5, 14.7, 9.4, 14.2 12.35 32, 60, 58, 60, 65 (Avg:60)
313 Modena Schofield Briallyn Alimah Metabolics moderate L4 (Rep) 12:23:48 11.9, 13.3, 10.9, 10.3 11.62 32, 52, 56, 54, 56, 56 (Avg:54)
305 Bella Brassington Wybalena Lodge Princess Reba Lame L4 14:32:09 9.3, 10.5, 8.9, 10.7 9.91 36, 52, 56, 52, 44 (Avg:51)
322 Daisy Bryson Accelerate Lame L3 8:38:02 12.0, 13.4, 11.2 12.28 40, 48, 44, 52 (Avg:48)
310 Indra Hofstee Ausden Prince Mahal Lame L3 9:13:46 10.9, 11.7, 11.9 11.48 36, 52, 52, 56 (Avg:53)
303 Julia Hill Safour Lame L2 4:51:00 9.0, 52.4 15.88 36, 56, 48 (Avg:52)